AirNav   Pilot Hours Calculator
 
 819 users online  

8U0 Ryegate Airport
Ryegate, Montana, USA

GOING TO RYEGATE?


FAA INFORMATION EFFECTIVE 25 FEBRUARY 2021

Location

FAA Identifier: 8U0
Lat/Long: 46-17-25.7000N 109-14-51.7000W
46-17.428333N 109-14.861667W
46.2904722,-109.2476944
(estimated)
Elevation: 3689 ft. / 1124 m (estimated)
Variation: 15E (1985)
From city: 1 mile S of RYEGATE, MT
Time zone: UTC -7 (UTC -6 during Daylight Saving Time)
Zip code: 59074

Airport Operations

Airport use: Open to the public
Activation date: 10/1964
Control tower: no
ARTCC: SALT LAKE CITY CENTER
FSS: GREAT FALLS FLIGHT SERVICE STATION
NOTAMs facility: GTF (NOTAM-D service available)
Attendance: UNATNDD
Wind indicator: yes
Segmented circle: yes
Beacon: white (unlighted land airport)
ROTG BCN LCTD ATOP 51 FT TWR 1100 FT W OF RY 07/25 END & 900 FT S OF EXTNDD CNTRLN. Operates sunset to sunrise.

Airport Communications

CTAF: 122.9

Nearby radio navigation aids

VOR radial/distance  VOR name  Freq  Var
BILr304/38.8BILLINGS VORTAC114.5014E

Airport Services

Parking: tiedowns
Airframe service: NONE
Powerplant service: NONE
Bottled oxygen: NONE
Bulk oxygen: NONE

Runway Information

Runway 7/25

Dimensions: 3440 x 100 ft. / 1049 x 30 m
Surface: turf, in fair condition
SFC COND ROUGH.
Runway edge markings: 07/25 MKD BY WHITE CONES FULL LENGTH.
RUNWAY 7  RUNWAY 25
Latitude: 46-17.416320N46-17.438783N
Longitude: 109-15.268840W109-14.452857W
Elevation: 3689.0 ft.3682.0 ft.
Traffic pattern: leftleft
Runway heading: 073 magnetic, 088 true253 magnetic, 268 true

Airport Ownership and Management from official FAA records

Ownership: Publicly-owned
Owner: MONTANA AERONAUTICS DIVISION
PO BOX 200507
HELENA, MT 59620-0507
Phone 406-444-2506
Manager: TIM CONWAY
BOX 200507
HELENA, MT 59620-0507
Phone 406-444-2506

Airport Operational Statistics

Aircraft operations: 100/year *
100% transient general aviation
* for 12-month period ending 17 July 2019

Additional Remarks

NO SNOW REMOVAL.
FOR CD CTC SALT LAKE ARTCC AT 801-320-2568.

Instrument Procedures

There are no published instrument procedures at 8U0.

Some nearby airports with instrument procedures:

KHWQ - Wheatland County Airport at Harlowton (27 nm W)
KRPX - Roundup Airport (31 nm E)
6S8 - Laurel Municipal Airport (41 nm SE)
KBIL - Billings Logan International Airport (41 nm SE)
6S0 - Big Timber Airport (42 nm SW)
 
Loc | Ops | Rwys | IFR | FBO | Links
Com | Nav | Svcs | Stats | Notes
Area around 8U0 (Ryegate Airport)
 
Road maps at: MapQuest Bing Google
 
Aerial photo
WARNING: Photo may not be current or correct
Aerial photo of 8U0 (Ryegate Airport)
Photo courtesy of Chris Boyer, www.kestrelaerial.com/
Photo taken 25-Oct-2005

Do you have a better or more recent aerial photo of Ryegate Airport that you would like to share? If so, please send us your photo.

 
Sectional chart

 
Airport distance calculator
Flying to Ryegate Airport? Find the distance to fly.

From to 8U0

Sunrise and sunset
Times for 08-Mar-2021
 Local
(UTC-7)
 Zulu
(UTC)
Morning civil twilight06:1413:14
Sunrise06:4413:44
Sunset18:1201:12
Evening civil twilight18:4201:42

Current date and time
Zulu (UTC)  08-Mar-2021 13:14:26
Local (UTC-7)  08-Mar-2021 06:14:26
 
METAR
KMVH 
35nm N 
081255Z AUTO 28004KT 10SM FEW085 M03/M07 A3004 RMK AO2
K6S8 
41nm SE 
081255Z AUTO 29007KT 10SM M01/M04 A3001 RMK A01 Laurel
KBIL 
41nm SE 
081253Z 26007KT 10SM FEW150 M01/M04 A2999 RMK AO2 SLP170 T10061044
K6S0 
42nm SW 
081255Z AUTO 25006KT 10SM SCT120 M04/M07 A3002 RMK A01
KLWT 
45nm N 
081254Z AUTO 23003KT 10SM CLR M04/M06 A3003 RMK AO2 SLP194 T10391061
TAF
KBIL 
41nm SE 
081131Z 0812/0912 24006KT P6SM FEW250 FM081630 05008KT P6SM FEW100 BKN250 FM090700 01008KT P6SM VCSH FEW090 OVC200
KLWT 
45nm N 
081120Z 0812/0912 VRB05KT P6SM FEW080 SCT150 FM082100 09013KT P6SM BKN100 PROB30 0823/0905 4SM -RASN BR OVC025 FM090600 01010KT P6SM BKN030 BKN070 PROB30 0906/0908 4SM -SN BR OVC015 FM090800 30008KT P6SM BKN015 BKN025 PROB30 0908/0912 4SM -SN BR OVC009
NOTAMs
Click for the latest NOTAMs
NOTAMs are issued by the DoD/FAA and will open in a separate window not controlled by AirNav.

 

 
 

Would you like to see your business listed on this page?

 If your business provides an interesting product or service to pilots, flight crews, aircraft, or users of the Ryegate Airport, you should consider listing it here.  To start the listing process, click on the button below
 
Add a business
 

Other Pages about Ryegate Airport

Update a link
 
Copyright © AirNav, LLC. All rights reserved. Privacy Policy  Contact